createdAt,value
2018-02-18T00:00:07.899Z,99.90
2018-02-18T00:02:34.147Z,99.90
2018-02-18T00:05:00.365Z,99.90
2018-02-18T00:07:26.599Z,99.90
2018-02-18T00:09:52.826Z,99.90
2018-02-18T00:12:19.094Z,99.90
2018-02-18T00:14:46.199Z,99.90
2018-02-18T00:17:13.185Z,99.90
2018-02-18T00:19:39.413Z,99.90
2018-02-18T00:22:06.401Z,99.90
2018-02-18T00:24:32.604Z,99.90
2018-02-18T00:26:59.643Z,99.90
2018-02-18T00:29:25.877Z,99.90
2018-02-18T00:31:52.121Z,99.90
2018-02-18T00:34:18.339Z,99.90
2018-02-18T00:36:44.615Z,99.90
2018-02-18T00:39:11.596Z,99.90
2018-02-18T00:41:37.838Z,99.90
2018-02-18T00:44:04.067Z,99.90
2018-02-18T00:46:31.020Z,99.90
2018-02-18T00:48:57.983Z,99.90
2018-02-18T00:51:24.926Z,99.90
2018-02-18T00:53:51.138Z,99.90
2018-02-18T00:56:17.360Z,99.90
2018-02-18T00:58:43.590Z,99.90
2018-02-18T01:01:09.836Z,99.90
2018-02-18T01:03:36.074Z,99.90
2018-02-18T01:06:02.304Z,99.90
2018-02-18T01:08:28.512Z,99.90
2018-02-18T01:10:54.737Z,99.90
2018-02-18T01:13:21.035Z,99.90
2018-02-18T01:15:47.307Z,99.90
2018-02-18T01:18:13.516Z,99.90
2018-02-18T01:20:39.760Z,99.90
2018-02-18T01:23:06.004Z,99.90
2018-02-18T01:25:32.239Z,99.90
2018-02-18T01:27:58.465Z,99.90
2018-02-18T01:30:24.697Z,99.90
2018-02-18T01:32:50.926Z,99.90
2018-02-18T01:35:17.891Z,99.90
2018-02-18T01:37:44.111Z,99.90
2018-02-18T01:42:43.938Z,99.90
2018-02-18T01:45:10.168Z,99.90
2018-02-18T01:47:36.376Z,99.90
2018-02-18T01:50:14.767Z,99.90
2018-02-18T01:52:40.980Z,99.90
2018-02-18T01:55:07.202Z,99.90
2018-02-18T01:57:33.430Z,99.90
2018-02-18T01:59:59.648Z,99.90
2018-02-18T02:02:26.627Z,99.90
2018-02-18T02:04:52.840Z,99.90
2018-02-18T02:07:19.088Z,99.90
2018-02-18T02:09:45.293Z,99.90
2018-02-18T02:12:11.515Z,99.90
2018-02-18T02:14:37.750Z,99.90
2018-02-18T02:17:03.969Z,99.90
2018-02-18T02:19:30.202Z,99.90
2018-02-18T02:21:56.420Z,99.90
2018-02-18T02:24:23.379Z,99.90
2018-02-18T02:26:50.375Z,99.90
2018-02-18T02:29:16.608Z,99.90
2018-02-18T02:31:42.843Z,99.90
2018-02-18T02:34:09.072Z,99.90
2018-02-18T02:36:35.275Z,99.90
2018-02-18T02:39:01.477Z,99.90
2018-02-18T02:41:27.729Z,99.90
2018-02-18T02:43:53.961Z,99.90
2018-02-18T02:46:20.168Z,99.90
2018-02-18T02:48:46.372Z,99.90
2018-02-18T02:51:12.590Z,99.90
2018-02-18T02:53:38.817Z,99.90
2018-02-18T02:56:05.782Z,99.90
2018-02-18T02:58:32.012Z,99.90
2018-02-18T03:00:58.224Z,99.90
2018-02-18T03:03:25.176Z,99.90
2018-02-18T03:05:51.413Z,99.90
2018-02-18T03:08:17.628Z,99.90
2018-02-18T03:10:43.858Z,99.90
2018-02-18T03:13:10.088Z,99.90
2018-02-18T03:15:36.668Z,99.90
2018-02-18T03:18:02.905Z,99.90
2018-02-18T03:20:29.124Z,99.90
2018-02-18T03:22:55.332Z,99.90
2018-02-18T03:25:21.538Z,99.90
2018-02-18T03:27:48.486Z,99.90
2018-02-18T03:30:14.715Z,99.90
2018-02-18T03:32:40.961Z,99.90
2018-02-18T03:35:07.159Z,99.90
2018-02-18T03:37:33.381Z,99.90
2018-02-18T03:39:59.614Z,99.90
2018-02-18T03:42:25.829Z,99.90
2018-02-18T03:44:52.792Z,99.90
2018-02-18T03:47:19.742Z,99.90
2018-02-18T03:49:45.984Z,99.90
2018-02-18T03:52:12.192Z,99.90
2018-02-18T03:54:38.413Z,99.90
2018-02-18T03:57:04.677Z,99.90
2018-02-18T03:59:30.876Z,99.90
2018-02-18T04:01:57.148Z,99.90
2018-02-18T04:04:23.368Z,99.90
2018-02-18T04:06:49.966Z,99.90
2018-02-18T04:09:16.170Z,99.90
2018-02-18T04:11:42.384Z,99.90
2018-02-18T04:14:08.615Z,99.90
2018-02-18T04:16:34.824Z,99.90
2018-02-18T04:19:01.038Z,99.90
2018-02-18T04:21:27.273Z,99.90
2018-02-18T04:23:53.773Z,99.90
2018-02-18T04:26:20.724Z,99.90
2018-02-18T04:28:47.678Z,99.90
2018-02-18T04:31:14.667Z,99.90
2018-02-18T04:33:40.885Z,99.90
2018-02-18T04:36:07.851Z,99.90
2018-02-18T04:38:34.073Z,99.90
2018-02-18T04:41:00.311Z,99.90
2018-02-18T04:43:26.514Z,99.90
2018-02-18T04:45:52.737Z,99.90
2018-02-18T04:48:18.957Z,99.90
2018-02-18T04:50:45.156Z,99.90
2018-02-18T04:53:11.379Z,99.90
2018-02-18T04:55:37.607Z,99.90
2018-02-18T04:58:03.833Z,99.90
2018-02-18T05:00:30.051Z,99.90
2018-02-18T05:02:56.246Z,99.90
2018-02-18T05:05:22.487Z,99.90
2018-02-18T05:07:48.690Z,99.90
2018-02-18T05:10:14.908Z,99.90
2018-02-18T05:12:41.132Z,99.90
2018-02-18T05:15:08.084Z,99.90
2018-02-18T05:17:35.064Z,99.90
2018-02-18T05:20:01.283Z,99.90
2018-02-18T05:22:28.242Z,99.90
2018-02-18T05:24:55.188Z,99.90
2018-02-18T05:27:21.424Z,99.90
2018-02-18T05:29:47.630Z,99.90
2018-02-18T05:32:13.846Z,99.90
2018-02-18T05:34:40.080Z,99.90
2018-02-18T05:37:06.273Z,99.90
2018-02-18T05:39:32.506Z,99.90
2018-02-18T05:41:58.712Z,99.90
2018-02-18T05:44:24.942Z,99.90
2018-02-18T05:46:51.156Z,99.90
2018-02-18T05:49:18.106Z,99.90
2018-02-18T05:51:44.325Z,99.90
2018-02-18T05:54:10.528Z,99.90
2018-02-18T05:56:36.751Z,99.90
2018-02-18T05:59:02.963Z,99.90
2018-02-18T06:01:29.186Z,99.90
2018-02-18T06:03:55.383Z,99.90
2018-02-18T06:06:21.592Z,99.90
2018-02-18T06:08:48.561Z,99.90
2018-02-18T06:11:15.517Z,99.90
2018-02-18T06:13:42.514Z,99.90
2018-02-18T06:16:08.736Z,99.90
2018-02-18T06:18:34.943Z,99.90
2018-02-18T06:21:01.148Z,98.80
2018-02-18T06:23:27.383Z,97.90
2018-02-18T06:25:53.613Z,97.00
2018-02-18T06:28:19.833Z,96.50
2018-02-18T06:30:46.054Z,96.20
2018-02-18T06:33:13.013Z,94.50
2018-02-18T06:35:39.264Z,94.50
2018-02-18T06:38:05.503Z,94.90
2018-02-18T06:40:31.743Z,95.40
2018-02-18T06:42:57.967Z,96.00
2018-02-18T06:45:24.932Z,96.70
2018-02-18T06:47:51.903Z,97.00
2018-02-18T06:50:18.133Z,97.00
2018-02-18T06:52:45.095Z,97.60
2018-02-18T06:55:11.318Z,97.60
2018-02-18T06:57:38.299Z,98.10
2018-02-18T07:00:04.545Z,98.00
2018-02-18T07:02:30.763Z,98.30
2018-02-18T07:04:57.729Z,98.70
2018-02-18T07:07:24.705Z,98.80
2018-02-18T07:09:50.947Z,98.80
2018-02-18T07:12:17.168Z,98.70
2018-02-18T07:14:44.137Z,98.80
2018-02-18T07:17:10.378Z,98.80
2018-02-18T07:19:36.607Z,98.90
2018-02-18T07:22:02.837Z,98.90
2018-02-18T07:24:29.807Z,98.80
2018-02-18T07:26:56.051Z,98.70
2018-02-18T07:29:22.270Z,98.90
2018-02-18T07:31:49.231Z,98.40
2018-02-18T07:34:16.218Z,98.50
2018-02-18T07:36:42.475Z,98.50
2018-02-18T07:39:08.697Z,98.60
2018-02-18T07:41:34.910Z,98.60
2018-02-18T07:44:01.868Z,99.10
2018-02-18T07:46:28.097Z,99.00
2018-02-18T07:48:55.089Z,98.70
2018-02-18T07:51:21.330Z,98.90
2018-02-18T07:53:47.592Z,99.90
2018-02-18T07:56:13.876Z,99.90
2018-02-18T07:58:40.096Z,99.90
2018-02-18T08:01:06.335Z,99.90
2018-02-18T08:03:32.561Z,99.90
2018-02-18T08:05:58.798Z,99.90
2018-02-18T08:08:25.000Z,99.90
2018-02-18T08:10:51.986Z,99.00
2018-02-18T08:13:18.414Z,99.00
2018-02-18T08:15:44.673Z,98.60
2018-02-18T08:18:10.928Z,98.40
2018-02-18T08:20:37.136Z,98.30
2018-02-18T08:23:03.386Z,98.30
2018-02-18T08:25:29.616Z,98.50
2018-02-18T08:27:55.843Z,98.60
2018-02-18T08:30:22.811Z,98.60
2018-02-18T08:32:49.032Z,98.60
2018-02-18T08:35:15.988Z,98.70
2018-02-18T08:37:42.214Z,98.70
2018-02-18T08:40:08.446Z,98.30
2018-02-18T08:42:34.679Z,98.40
2018-02-18T08:45:00.924Z,98.30
2018-02-18T08:47:27.312Z,98.30
2018-02-18T08:49:53.573Z,98.20
2018-02-18T08:52:19.800Z,98.10
2018-02-18T08:54:46.062Z,98.10
2018-02-18T08:57:12.262Z,98.00
2018-02-18T08:59:39.263Z,98.00
2018-02-18T09:02:05.492Z,98.00
2018-02-18T09:04:31.736Z,98.20
2018-02-18T09:06:57.972Z,98.40
2018-02-18T09:09:24.194Z,98.60
2018-02-18T09:11:50.431Z,98.50
2018-02-18T09:14:17.584Z,98.10
2018-02-18T09:16:44.604Z,98.20
2018-02-18T09:19:10.865Z,98.20
2018-02-18T09:21:37.097Z,98.00
2018-02-18T09:24:03.392Z,97.90
2018-02-18T09:26:29.650Z,97.60
2018-02-18T09:28:55.974Z,97.50
2018-02-18T09:31:22.236Z,97.40
2018-02-18T09:33:48.515Z,97.20
2018-02-18T09:36:14.759Z,97.00
2018-02-18T09:38:40.977Z,96.80
2018-02-18T09:41:07.283Z,96.90
2018-02-18T09:43:40.502Z,96.90
2018-02-18T09:46:06.759Z,97.00
2018-02-18T09:48:32.985Z,97.10
2018-02-18T09:50:59.236Z,97.20
2018-02-18T09:53:25.485Z,96.60
2018-02-18T09:55:51.733Z,96.40
2018-02-18T09:58:18.017Z,96.30
2018-02-18T10:00:44.237Z,96.20
2018-02-18T10:03:11.215Z,96.30
2018-02-18T10:05:37.443Z,96.20
2018-02-18T10:08:03.701Z,96.10
2018-02-18T10:10:29.928Z,95.70
2018-02-18T10:12:56.969Z,95.60
2018-02-18T10:15:23.215Z,95.60
2018-02-18T10:17:49.426Z,95.60
2018-02-18T10:20:15.673Z,95.50
2018-02-18T10:22:41.904Z,95.00
2018-02-18T10:25:08.128Z,94.90
2018-02-18T10:27:34.345Z,94.50
2018-02-18T10:30:01.339Z,94.40
2018-02-18T10:32:27.578Z,94.40
2018-02-18T10:34:53.802Z,94.60
2018-02-18T10:37:20.067Z,95.10
2018-02-18T10:39:46.276Z,96.80
2018-02-18T10:42:12.561Z,97.40
2018-02-18T10:44:38.808Z,97.10
2018-02-18T10:47:05.056Z,95.30
2018-02-18T10:49:32.145Z,93.00
2018-02-18T10:51:58.570Z,92.90
2018-02-18T10:54:25.654Z,92.80
2018-02-18T10:56:51.918Z,92.80
2018-02-18T10:59:19.346Z,92.80
2018-02-18T11:01:47.381Z,93.00
2018-02-18T11:04:13.645Z,93.00
2018-02-18T11:06:39.895Z,93.10
2018-02-18T11:09:06.858Z,93.60
2018-02-18T11:11:33.829Z,93.40
2018-02-18T11:14:00.933Z,93.40
2018-02-18T11:16:27.383Z,93.40
2018-02-18T11:18:53.651Z,93.60
2018-02-18T11:21:19.892Z,93.80
2018-02-18T11:23:53.108Z,94.10
2018-02-18T11:26:20.111Z,95.60
2018-02-18T11:28:46.364Z,95.60
2018-02-18T11:31:12.616Z,96.00
2018-02-18T11:33:38.897Z,95.50
2018-02-18T11:36:05.889Z,93.30
2018-02-18T11:38:32.180Z,93.30
2018-02-18T11:40:58.435Z,92.40
2018-02-18T11:43:25.783Z,93.30
2018-02-18T11:45:52.268Z,93.00
2018-02-18T11:48:18.809Z,92.60
2018-02-18T11:50:45.329Z,91.50
2018-02-18T11:53:12.321Z,89.90
2018-02-18T11:55:38.551Z,89.90
2018-02-18T11:58:04.835Z,90.20
2018-02-18T12:00:31.188Z,90.70
2018-02-18T12:02:57.445Z,91.00
2018-02-18T12:05:23.705Z,91.20
2018-02-18T12:07:52.509Z,91.80
2018-02-18T12:10:19.652Z,91.80
2018-02-18T12:12:46.171Z,91.80
2018-02-18T12:15:12.380Z,91.80
2018-02-18T12:17:38.695Z,92.00
2018-02-18T12:20:05.696Z,93.50
2018-02-18T12:22:32.066Z,93.50
2018-02-18T12:24:58.313Z,93.40
2018-02-18T12:27:24.541Z,92.90
2018-02-18T12:29:50.796Z,91.60
2018-02-18T12:32:17.061Z,91.10
2018-02-18T12:34:45.108Z,91.20
2018-02-18T12:37:11.426Z,90.90
2018-02-18T12:39:37.706Z,91.20
2018-02-18T12:42:04.008Z,91.20
2018-02-18T12:44:30.290Z,91.60
2018-02-18T12:46:56.556Z,91.40
2018-02-18T12:49:22.780Z,91.30
2018-02-18T12:51:49.015Z,91.40
2018-02-18T12:54:15.299Z,91.40
2018-02-18T12:56:41.574Z,91.40
2018-02-18T12:59:07.829Z,91.40
2018-02-18T13:01:34.138Z,91.40
2018-02-18T13:04:00.394Z,91.60
2018-02-18T13:06:26.664Z,91.70
2018-02-18T13:08:52.976Z,91.80
2018-02-18T13:11:19.236Z,91.90
2018-02-18T13:13:45.495Z,91.90
2018-02-18T13:16:12.571Z,92.10
2018-02-18T13:18:38.833Z,92.10
2018-02-18T13:21:05.105Z,92.10
2018-02-18T13:23:31.416Z,92.00
2018-02-18T13:25:57.731Z,92.10
2018-02-18T13:28:24.713Z,92.40
2018-02-18T13:30:51.012Z,92.30
2018-02-18T13:33:17.283Z,92.60
2018-02-18T13:35:44.279Z,92.70
2018-02-18T13:38:10.539Z,92.70
2018-02-18T13:40:36.816Z,92.60
2018-02-18T13:43:03.851Z,92.60
2018-02-18T13:45:30.121Z,92.60
2018-02-18T13:47:56.424Z,92.70
2018-02-18T13:50:22.711Z,92.50
2018-02-18T13:52:49.696Z,92.20
2018-02-18T13:55:16.052Z,92.20
2018-02-18T13:57:42.318Z,92.30
2018-02-18T14:00:08.619Z,92.10
2018-02-18T14:02:34.849Z,92.30
2018-02-18T14:05:01.129Z,92.50
2018-02-18T14:07:27.403Z,92.70
2018-02-18T14:09:54.400Z,93.00
2018-02-18T14:12:20.653Z,93.00
2018-02-18T14:14:46.910Z,93.30
2018-02-18T14:17:13.206Z,93.50
2018-02-18T14:19:39.437Z,93.50
2018-02-18T14:22:05.697Z,93.40
2018-02-18T14:24:31.954Z,93.50
2018-02-18T14:26:58.259Z,93.60
2018-02-18T14:29:25.292Z,93.60
2018-02-18T14:31:51.617Z,93.60
2018-02-18T14:34:17.852Z,93.90
2018-02-18T14:36:44.139Z,94.00
2018-02-18T14:39:10.454Z,94.00
2018-02-18T14:41:49.080Z,94.10
2018-02-18T14:44:27.765Z,94.20
2018-02-18T14:47:06.413Z,94.20
2018-02-18T14:49:45.117Z,94.20
2018-02-18T14:52:24.245Z,94.50
2018-02-18T14:55:03.533Z,94.60
2018-02-18T14:57:33.837Z,94.60
2018-02-18T15:00:00.854Z,94.90
2018-02-18T15:02:27.089Z,94.90
2018-02-18T15:04:53.351Z,94.90
2018-02-18T15:07:19.651Z,95.00
2018-02-18T15:09:45.876Z,95.10
2018-02-18T15:12:12.123Z,95.30
2018-02-18T15:14:38.432Z,95.40
2018-02-18T15:17:04.703Z,95.40
2018-02-18T15:19:30.948Z,95.50
2018-02-18T15:21:57.228Z,95.50
2018-02-18T15:24:23.470Z,95.50
2018-02-18T15:26:49.744Z,95.70
2018-02-18T15:29:16.788Z,95.90
2018-02-18T15:31:43.110Z,95.80
2018-02-18T15:34:09.388Z,95.90
2018-02-18T15:36:36.462Z,99.90
2018-02-18T15:39:02.810Z,99.90
2018-02-18T15:41:29.107Z,99.90
2018-02-18T15:43:55.347Z,96.80
2018-02-18T15:46:21.623Z,92.50
2018-02-18T15:48:48.700Z,91.10
2018-02-18T15:51:14.973Z,91.00
2018-02-18T15:53:41.297Z,91.50
2018-02-18T15:56:07.589Z,91.80
2018-02-18T15:58:34.655Z,92.90
2018-02-18T16:01:01.717Z,93.50
2018-02-18T16:03:28.771Z,94.00
2018-02-18T16:05:55.813Z,94.50
2018-02-18T16:08:22.103Z,94.40
2018-02-18T16:10:48.415Z,95.00
2018-02-18T16:13:15.530Z,95.50
2018-02-18T16:15:41.881Z,95.40
2018-02-18T16:18:08.169Z,95.70
2018-02-18T16:20:35.182Z,96.30
2018-02-18T16:23:01.535Z,96.20
2018-02-18T16:25:27.797Z,96.50
2018-02-18T16:27:54.101Z,96.70
2018-02-18T16:30:20.415Z,96.90
2018-02-18T16:32:46.763Z,97.10
2018-02-18T16:35:13.106Z,97.20
2018-02-18T16:37:39.531Z,97.10
2018-02-18T16:40:06.609Z,97.40
2018-02-18T16:42:32.892Z,97.40
2018-02-18T16:44:59.178Z,97.60
2018-02-18T16:47:26.177Z,97.90
2018-02-18T16:49:52.511Z,97.90
2018-02-18T16:52:18.808Z,97.90
2018-02-18T16:54:45.853Z,98.00
2018-02-18T16:57:12.169Z,97.90
2018-02-18T16:59:38.469Z,97.90
2018-02-18T17:02:04.821Z,97.90
2018-02-18T17:04:31.113Z,97.90
2018-02-18T17:06:57.432Z,97.90
2018-02-18T17:09:23.772Z,97.90
2018-02-18T17:11:50.059Z,97.90
2018-02-18T17:14:17.133Z,98.00
2018-02-18T17:16:44.175Z,98.20
2018-02-18T17:19:11.371Z,98.10
2018-02-18T17:21:37.713Z,98.20
2018-02-18T17:24:04.698Z,98.70
2018-02-18T17:26:31.060Z,98.40
2018-02-18T17:28:57.358Z,98.40
2018-02-18T17:31:30.541Z,98.40
2018-02-18T17:33:56.848Z,98.40
2018-02-18T17:36:23.146Z,98.40
2018-02-18T17:38:49.483Z,98.20
2018-02-18T17:41:16.542Z,98.10
2018-02-18T17:43:42.865Z,98.10
2018-02-18T17:46:09.916Z,98.20
2018-02-18T17:48:36.224Z,98.20
2018-02-18T17:51:02.556Z,98.20
2018-02-18T17:53:29.770Z,98.20
2018-02-18T17:55:57.600Z,98.40
2018-02-18T17:58:23.927Z,98.40
2018-02-18T18:00:50.236Z,98.40
2018-02-18T18:03:18.050Z,98.30
2018-02-18T18:05:44.360Z,98.30
2018-02-18T18:08:11.396Z,98.30
2018-02-18T18:10:37.696Z,98.30
2018-02-18T18:13:04.042Z,98.30
2018-02-18T18:15:30.332Z,98.30
2018-02-18T18:17:57.555Z,98.30
2018-02-18T18:20:23.931Z,98.40
2018-02-18T18:22:50.240Z,98.50
2018-02-18T18:25:17.477Z,98.50
2018-02-18T18:27:43.782Z,98.40
2018-02-18T18:30:10.131Z,98.40
2018-02-18T18:32:38.173Z,98.60
2018-02-18T18:35:04.516Z,98.30
2018-02-18T18:37:30.832Z,98.30
2018-02-18T18:39:57.102Z,98.40
2018-02-18T18:42:23.442Z,98.40
2018-02-18T18:44:50.564Z,98.50
2018-02-18T18:47:17.760Z,98.60
2018-02-18T18:49:44.419Z,98.60
2018-02-18T18:52:10.824Z,98.60
2018-02-18T18:54:37.122Z,98.50
2018-02-18T18:57:03.446Z,98.60
2018-02-18T18:59:29.808Z,98.70
2018-02-18T19:01:56.172Z,98.60
2018-02-18T19:04:23.244Z,99.10
2018-02-18T19:06:50.292Z,98.70
2018-02-18T19:09:16.639Z,98.70
2018-02-18T19:11:43.823Z,98.70
2018-02-18T19:14:10.228Z,98.70
2018-02-18T19:16:36.538Z,98.60
2018-02-18T19:19:02.857Z,98.60
2018-02-18T19:21:29.172Z,98.60
2018-02-18T19:23:55.565Z,98.60
2018-02-18T19:26:23.165Z,98.60
2018-02-18T19:28:49.677Z,98.60
2018-02-18T19:31:16.014Z,98.60
2018-02-18T19:33:45.728Z,98.70
2018-02-18T19:36:12.216Z,98.60
2018-02-18T19:38:38.547Z,98.70
2018-02-18T19:41:05.899Z,98.70
2018-02-18T19:43:32.586Z,98.70
2018-02-18T19:45:59.072Z,98.70
2018-02-18T19:48:26.482Z,98.70
2018-02-18T19:50:52.764Z,98.70
2018-02-18T19:53:20.405Z,98.70
2018-02-18T19:55:47.517Z,98.70
2018-02-18T19:58:14.742Z,98.70
2018-02-18T20:00:42.653Z,98.70
2018-02-18T20:03:09.524Z,98.70
2018-02-18T20:05:36.224Z,98.70
2018-02-18T20:08:03.359Z,98.70
2018-02-18T20:10:31.488Z,98.70
2018-02-18T20:12:59.077Z,98.70
2018-02-18T20:15:31.213Z,98.70
2018-02-18T20:17:57.559Z,98.70
2018-02-18T20:20:24.862Z,98.70
2018-02-18T20:22:51.948Z,98.60
2018-02-18T20:25:18.556Z,98.60
2018-02-18T20:27:45.703Z,98.60
2018-02-18T20:30:12.960Z,98.70
2018-02-18T20:32:39.352Z,99.00
2018-02-18T20:35:07.427Z,98.70
2018-02-18T20:37:35.685Z,99.10
2018-02-18T20:40:02.062Z,98.70
2018-02-18T20:42:29.190Z,98.80
2018-02-18T20:44:56.376Z,98.80
2018-02-18T20:47:23.430Z,98.80
2018-02-18T20:49:51.222Z,98.70
2018-02-18T20:52:18.012Z,98.80
2018-02-18T20:54:44.683Z,98.90
2018-02-18T20:57:12.435Z,99.50
2018-02-18T20:59:39.640Z,99.20
2018-02-18T21:02:05.958Z,99.20
2018-02-18T21:04:32.978Z,99.00
2018-02-18T21:07:00.143Z,98.80
2018-02-18T21:09:26.570Z,98.80
2018-02-18T21:11:53.605Z,98.90
2018-02-18T21:14:20.017Z,98.80
2018-02-18T21:16:46.341Z,98.80
2018-02-18T21:19:12.640Z,98.80
2018-02-18T21:21:38.937Z,98.80
2018-02-18T21:24:05.249Z,98.90
2018-02-18T21:26:32.533Z,98.80
2018-02-18T21:28:59.773Z,99.00
2018-02-18T21:31:27.332Z,98.90
2018-02-18T21:33:57.677Z,98.90
2018-02-18T21:36:24.516Z,98.90
2018-02-18T21:38:51.316Z,98.90
2018-02-18T21:41:18.142Z,98.90
2018-02-18T21:43:45.263Z,99.00
2018-02-18T21:46:11.533Z,99.00
2018-02-18T21:48:37.876Z,99.00
2018-02-18T21:51:04.890Z,98.90
2018-02-18T21:53:31.163Z,98.90
2018-02-18T21:55:57.397Z,98.90
2018-02-18T21:58:24.150Z,98.90
2018-02-18T22:00:50.562Z,98.90
2018-02-18T22:03:17.121Z,98.80
2018-02-18T22:05:43.606Z,98.80
2018-02-18T22:08:10.031Z,98.80
2018-02-18T22:10:36.270Z,98.80
2018-02-18T22:13:02.563Z,98.70
2018-02-18T22:15:28.801Z,98.60
2018-02-18T22:17:55.785Z,98.60
2018-02-18T22:20:22.015Z,98.60
2018-02-18T22:22:48.258Z,98.60
2018-02-18T22:25:14.752Z,98.60
2018-02-18T22:27:40.970Z,98.70
2018-02-18T22:30:07.190Z,98.60
2018-02-18T22:32:33.436Z,98.60
2018-02-18T22:34:59.652Z,98.50
2018-02-18T22:37:25.918Z,98.50
2018-02-18T22:39:52.144Z,98.50
2018-02-18T22:42:18.372Z,98.50
2018-02-18T22:44:44.622Z,98.50
2018-02-18T22:47:10.826Z,98.50
2018-02-18T22:49:37.071Z,98.50
2018-02-18T22:52:03.318Z,98.40
2018-02-18T22:54:30.264Z,98.40
2018-02-18T22:56:57.239Z,98.40
2018-02-18T22:59:24.222Z,98.40
2018-02-18T23:01:50.486Z,98.40
2018-02-18T23:04:16.713Z,98.30
2018-02-18T23:06:42.931Z,98.20
2018-02-18T23:09:09.158Z,98.30
2018-02-18T23:11:36.115Z,98.30
2018-02-18T23:14:02.378Z,98.30
2018-02-18T23:16:28.595Z,98.20
2018-02-18T23:18:54.858Z,98.20
2018-02-18T23:21:21.063Z,98.10
2018-02-18T23:23:47.297Z,98.00
2018-02-18T23:26:13.531Z,98.00
2018-02-18T23:28:39.745Z,97.90
2018-02-18T23:31:05.956Z,97.90
2018-02-18T23:33:32.183Z,97.90
2018-02-18T23:35:58.419Z,97.80
2018-02-18T23:38:24.644Z,98.00
2018-02-18T23:40:51.599Z,97.70
2018-02-18T23:43:17.837Z,97.60
2018-02-18T23:45:44.071Z,97.70
2018-02-18T23:48:10.285Z,97.70
2018-02-18T23:50:36.528Z,97.70
2018-02-18T23:53:02.757Z,97.70
2018-02-18T23:55:29.009Z,97.70
2018-02-18T23:57:55.217Z,97.70
